createdAt,value
2022-11-12T00:00:19.282Z,5.97
2022-11-12T00:05:22.429Z,7.53
2022-11-12T00:10:25.633Z,8.18
2022-11-12T00:15:30.239Z,8.45
2022-11-12T00:20:33.406Z,9.68
2022-11-12T00:25:36.550Z,7.00
2022-11-12T00:30:42.198Z,7.05
2022-11-12T00:35:45.345Z,7.38
2022-11-12T00:40:48.474Z,7.38
2022-11-12T00:45:53.062Z,7.10
2022-11-12T00:51:01.464Z,7.55
2022-11-12T00:56:06.780Z,7.25
2022-11-12T01:01:14.711Z,5.50
2022-11-12T01:06:20.398Z,8.25
2022-11-12T01:11:25.606Z,6.30
2022-11-12T01:16:33.348Z,6.80
2022-11-12T01:21:40.202Z,8.82
2022-11-12T01:26:43.588Z,5.97
2022-11-12T01:31:48.258Z,7.78
2022-11-12T01:36:51.544Z,8.65
2022-11-12T01:41:54.902Z,7.00
2022-11-12T01:47:04.385Z,7.68
2022-11-12T01:52:14.819Z,6.82
2022-11-12T01:57:23.333Z,6.68
2022-11-12T02:02:28.600Z,6.97
2022-11-12T02:07:34.025Z,6.65
2022-11-12T02:12:51.588Z,7.18
2022-11-12T02:17:56.306Z,6.60
2022-11-12T02:23:01.008Z,7.05
2022-11-12T02:28:07.819Z,8.30
2022-11-12T02:33:11.080Z,8.07
2022-11-12T02:38:15.748Z,8.45
2022-11-12T02:43:18.981Z,9.65
2022-11-12T02:48:22.197Z,8.75
2022-11-12T02:53:27.252Z,9.93
2022-11-12T02:58:30.902Z,8.10
2022-11-12T03:03:34.150Z,8.77
2022-11-12T03:08:38.798Z,9.23
2022-11-12T03:13:42.239Z,7.75
2022-11-12T03:18:45.541Z,7.47
2022-11-12T03:23:50.163Z,10.00
2022-11-12T03:28:53.538Z,8.13
2022-11-12T03:33:56.903Z,12.30
2022-11-12T03:39:01.595Z,8.40
2022-11-12T03:44:05.071Z,7.32
2022-11-12T03:49:08.391Z,6.30
2022-11-12T03:54:12.981Z,6.78
2022-11-12T03:59:16.146Z,6.78
2022-11-12T04:04:19.421Z,6.70
2022-11-12T04:09:24.126Z,7.65
2022-11-12T04:14:27.444Z,5.95
2022-11-12T04:19:48.141Z,9.60
2022-11-12T04:25:10.453Z,6.10
2022-11-12T04:30:20.225Z,5.30
2022-11-12T04:35:25.590Z,7.53
2022-11-12T04:40:47.312Z,6.88
2022-11-12T04:45:53.274Z,7.82
2022-11-12T04:51:00.418Z,6.63
2022-11-12T04:56:05.492Z,6.22
2022-11-12T05:01:08.869Z,6.88
2022-11-12T05:06:25.971Z,5.20
2022-11-12T05:11:30.682Z,6.57
2022-11-12T05:16:33.969Z,6.07
2022-11-12T05:21:54.553Z,6.72
2022-11-12T05:26:59.128Z,6.38
2022-11-12T05:32:03.022Z,6.43
2022-11-12T05:37:08.269Z,6.47
2022-11-12T05:42:14.051Z,6.18
2022-11-12T05:47:18.040Z,5.53
2022-11-12T05:52:21.179Z,5.93
2022-11-12T05:57:28.523Z,6.07
2022-11-12T06:02:31.785Z,4.95
2022-11-12T06:07:35.074Z,5.88
2022-11-12T06:12:39.727Z,5.18
2022-11-12T06:17:43.685Z,5.13
2022-11-12T06:22:46.867Z,13.10
2022-11-12T06:27:51.584Z,4.65
2022-11-12T06:32:54.989Z,7.53
2022-11-12T06:37:58.233Z,6.00
2022-11-12T06:43:02.886Z,5.75
2022-11-12T06:48:06.172Z,6.38
2022-11-12T06:53:09.567Z,6.20
2022-11-12T06:58:14.173Z,5.00
2022-11-12T07:03:17.449Z,7.22
2022-11-12T07:08:20.697Z,5.13
2022-11-12T07:13:26.283Z,5.15
2022-11-12T07:18:30.295Z,5.53
2022-11-12T07:23:35.536Z,5.87
2022-11-12T07:28:40.138Z,5.03
2022-11-12T07:33:44.512Z,5.93
2022-11-12T07:38:48.167Z,4.90
2022-11-12T07:43:54.977Z,5.43
2022-11-12T07:48:58.173Z,5.85
2022-11-12T07:54:01.491Z,6.47
2022-11-12T07:59:06.227Z,9.20
2022-11-12T08:04:10.989Z,6.20
2022-11-12T08:09:14.217Z,6.95
2022-11-12T08:14:18.929Z,7.97
2022-11-12T08:19:22.253Z,8.27
2022-11-12T08:24:25.463Z,8.48
2022-11-12T08:29:30.170Z,8.07
2022-11-12T08:34:33.457Z,7.80
2022-11-12T08:39:36.729Z,9.52
2022-11-12T08:44:41.354Z,6.68
2022-11-12T08:49:47.954Z,7.88
2022-11-12T08:54:51.580Z,6.97
2022-11-12T08:59:56.244Z,9.82
2022-11-12T09:04:59.547Z,10.18
2022-11-12T09:10:02.853Z,8.52
2022-11-12T09:20:32.988Z,6.80
2022-11-12T09:25:36.735Z,8.55
2022-11-12T09:30:46.721Z,9.13
2022-11-12T09:35:50.882Z,8.32
2022-11-12T09:41:12.046Z,7.70
2022-11-12T09:46:37.810Z,7.50
2022-11-12T09:51:44.904Z,8.15
2022-11-12T09:56:49.634Z,5.85
2022-11-12T10:02:02.041Z,7.55
2022-11-12T10:07:12.767Z,6.32
2022-11-12T10:12:34.671Z,7.28
2022-11-12T10:17:47.748Z,6.25
2022-11-12T10:23:07.767Z,5.82
2022-11-12T10:28:24.373Z,6.57
2022-11-12T10:33:33.116Z,6.60
2022-11-12T10:38:37.966Z,5.63
2022-11-12T10:49:03.735Z,7.15
2022-11-12T10:54:32.995Z,7.22
2022-11-12T11:00:12.497Z,6.57
2022-11-12T11:05:52.814Z,8.77
2022-11-12T11:11:25.839Z,7.45
2022-11-12T11:16:32.390Z,8.57
2022-11-12T11:22:06.709Z,7.13
2022-11-12T11:27:18.386Z,5.93
2022-11-12T11:32:37.368Z,6.63
2022-11-12T11:38:10.420Z,7.43
2022-11-12T11:51:22.135Z,5.82
2022-11-12T12:02:10.804Z,6.10
2022-11-12T12:19:16.656Z,5.97
2022-11-12T12:24:38.595Z,6.00
2022-11-12T12:37:59.787Z,5.90
2022-11-12T12:41:47.994Z,5.60
2022-11-12T12:47:27.884Z,6.07
2022-11-12T12:57:41.200Z,6.63
2022-11-12T13:02:45.134Z,5.05
2022-11-12T13:07:50.672Z,5.85
2022-11-12T13:13:06.030Z,5.80
2022-11-12T13:18:14.361Z,6.40
2022-11-12T13:24:05.951Z,5.28
2022-11-12T13:29:41.187Z,6.22
2022-11-12T13:34:44.836Z,5.75
2022-11-12T13:39:48.544Z,5.33
2022-11-12T13:44:56.097Z,6.80
2022-11-12T13:50:02.734Z,7.55
2022-11-12T13:55:08.307Z,7.47
2022-11-12T14:00:25.352Z,6.03
2022-11-12T14:05:31.134Z,5.78
2022-11-12T14:10:46.116Z,5.28
2022-11-12T14:16:09.558Z,7.13
2022-11-12T14:21:17.081Z,5.93
2022-11-12T14:26:36.958Z,5.95
2022-11-12T14:31:41.609Z,5.57
2022-11-12T14:36:47.553Z,7.47
2022-11-12T14:41:51.158Z,5.82
2022-11-12T14:46:56.995Z,5.90
2022-11-12T14:52:08.922Z,5.20
2022-11-12T14:57:19.686Z,7.18
2022-11-12T15:02:37.672Z,9.18
2022-11-12T15:07:57.156Z,8.23
2022-11-12T15:13:06.742Z,7.43
2022-11-12T15:18:18.870Z,7.65
2022-11-12T15:23:22.078Z,8.38
2022-11-12T15:28:27.443Z,8.70
2022-11-12T15:33:32.009Z,8.55
2022-11-12T15:38:37.987Z,7.47
2022-11-12T15:43:43.548Z,7.53
2022-11-12T15:48:52.793Z,10.15
2022-11-12T15:53:58.890Z,9.05
2022-11-12T15:59:02.361Z,10.30
2022-11-12T16:04:07.028Z,11.48
2022-11-12T16:09:10.181Z,11.95
2022-11-12T16:14:15.834Z,10.57
2022-11-12T16:19:20.494Z,13.30
2022-11-12T16:24:23.634Z,12.52
2022-11-12T16:29:26.816Z,11.43
2022-11-12T16:34:31.462Z,16.15
2022-11-12T16:39:35.119Z,18.98
2022-11-12T16:44:38.296Z,20.83
2022-11-12T16:49:43.457Z,21.60
2022-11-12T16:54:46.608Z,31.02
2022-11-12T16:59:49.740Z,24.27
2022-11-12T17:04:54.295Z,24.02
2022-11-12T17:15:00.521Z,29.00
2022-11-12T17:20:05.787Z,27.13
2022-11-12T17:25:10.124Z,36.40
2022-11-12T17:30:14.354Z,33.53
2022-11-12T17:35:18.923Z,35.80
2022-11-12T17:40:22.173Z,32.90
2022-11-12T17:45:25.349Z,36.28
2022-11-12T17:50:29.931Z,38.75
2022-11-12T17:55:33.447Z,34.42
2022-11-12T18:00:38.161Z,36.25
2022-11-12T18:10:45.874Z,43.45
2022-11-12T18:15:49.143Z,40.03
2022-11-12T18:20:53.801Z,36.42
2022-11-12T18:25:57.059Z,37.90
2022-11-12T18:31:01.853Z,43.95
2022-11-12T18:41:12.391Z,34.83
2022-11-12T18:46:15.635Z,34.85
2022-11-12T18:51:21.261Z,30.15
2022-11-12T18:56:24.414Z,30.00
2022-11-12T19:01:27.654Z,32.47
2022-11-12T19:06:32.240Z,32.35
2022-11-12T19:11:35.466Z,29.63
2022-11-12T19:16:42.461Z,33.67
2022-11-12T19:21:49.047Z,33.28
2022-11-12T19:26:52.235Z,34.22
2022-11-12T19:31:55.543Z,34.00
2022-11-12T19:37:26.866Z,32.05
2022-11-12T19:42:23.454Z,37.50
2022-11-12T19:47:26.641Z,40.47
2022-11-12T19:52:31.250Z,36.45
2022-11-12T19:57:34.553Z,38.15
2022-11-12T20:02:37.696Z,33.60
2022-11-12T20:07:42.260Z,31.65
2022-11-12T20:12:45.777Z,32.28
2022-11-12T20:17:48.982Z,28.85
2022-11-12T20:22:53.561Z,28.10
2022-11-12T20:27:56.743Z,26.05
2022-11-12T20:32:59.874Z,30.40
2022-11-12T20:38:04.677Z,29.33
2022-11-12T20:48:10.690Z,29.70
2022-11-12T20:53:15.259Z,30.67
2022-11-12T20:58:18.396Z,29.67
2022-11-12T21:03:22.076Z,25.77
2022-11-12T21:08:26.970Z,24.10
2022-11-12T21:13:30.341Z,26.17
2022-11-12T21:18:34.817Z,25.15
2022-11-12T21:23:41.053Z,27.88
2022-11-12T21:28:45.035Z,25.38
2022-11-12T21:33:50.722Z,28.07
2022-11-12T21:38:55.569Z,29.70
2022-11-12T21:49:01.598Z,27.33
2022-11-12T21:54:07.565Z,21.60
2022-11-12T21:59:10.732Z,25.63
2022-11-12T22:04:18.160Z,27.73
2022-11-12T22:09:23.055Z,27.20
2022-11-12T22:14:26.301Z,25.88
2022-11-12T22:19:29.448Z,24.83
2022-11-12T22:24:34.720Z,22.30
2022-11-12T22:29:37.921Z,23.50
2022-11-12T22:34:43.758Z,23.88
2022-11-12T22:39:50.354Z,27.88
2022-11-12T22:44:53.521Z,25.15
2022-11-12T22:49:56.650Z,24.95
2022-11-12T22:55:01.198Z,23.67
2022-11-12T23:00:09.621Z,23.50
2022-11-12T23:05:12.748Z,21.60
2022-11-12T23:10:17.491Z,20.85
2022-11-12T23:15:20.625Z,23.15
2022-11-12T23:20:24.159Z,24.08
2022-11-12T23:25:28.717Z,23.40
2022-11-12T23:30:31.867Z,23.58
2022-11-12T23:35:35.027Z,24.77
2022-11-12T23:40:39.599Z,26.60
2022-11-12T23:45:43.470Z,19.85
2022-11-12T23:50:47.837Z,21.42
2022-11-12T23:55:52.501Z,26.60
